Latest Coastal Weather Observations for Eucla

IDW60701

Issued at 12:02 am WST Sunday 1 March 2015 (issued every 10 minutes, with the page automatically refreshed every 10 minutes)

About coastal observations | Map of coastal stations | Coastal observations for WA | Marine services | Other Formats
Station Details ID: 011003 Name: EUCLA Lat: -31.68 Lon: 128.90 Height: 93.1 m
Data from the previous 72 hours. | See also: Recent months at Eucla
Date/Time
WST
Temp

°C
Wind Pressure Rain
since 9am
mm
Weather Cloud Vis
km
Sea
Height
m
Swell
Dir
 
Speed
knots
Gust
knots
hPa Trend Height
m
Period
s
Dir
01/12:00am 17.6 SE 7 13 1016.8 - 0.0 - - - - - - -
 
Date/Time
WST
Temp

°C
Wind Pressure Rain
since 9am
mm
Weather Cloud Vis
km
Sea
Height
m
Swell
Dir
 
Speed
knots
Gust
knots
hPa Trend Height
m
Period
s
Dir
28/11:30pm 17.8 SE 7 11 1017.0 - 0.0 - - - - - - -
28/11:00pm 18.3 SE 9 15 1017.4 - 0.0 - - - - - - -
28/10:30pm 18.6 SE 9 15 1017.3 - 0.0 - - - - - - -
28/10:00pm 18.4 SE 8 12 1017.6 - 0.0 - - - - - - -
28/09:30pm 18.6 SE 9 14 1018.0 - 0.0 - - - - - - -
28/09:00pm 18.9 SE 9 14 1017.9 - 0.0 - - - - - - -
28/08:30pm 19.0 SSE 11 16 1017.8 - 0.0 - - - - - - -
28/08:00pm 18.7 SSE 12 18 1017.5 - 0.0 - - - - - - -
28/07:30pm 18.9 SSE 12 19 1017.1 - 0.0 - - - - - - -
28/07:00pm 19.3 SE 11 17 1016.8 - 0.0 - - - - - - -
28/06:30pm 18.9 SE 8 13 1016.5 - 0.0 - - - - - - -
28/06:00pm 19.9 SSE 9 14 1016.3 - 0.0 - - - - - - -
28/05:30pm 19.9 SSE 11 15 1016.1 - 0.0 - - - - - - -
28/05:00pm 20.8 SSE 12 19 1015.7 - 0.0 - - - - - - -
28/04:30pm 21.4 SSE 12 18 1015.7 - 0.0 - - - - - - -
28/04:00pm 22.0 SSE 13 19 1015.4 - 0.0 - - - - - - -
28/03:30pm 22.3 SSE 13 21 1015.2 - 0.0 - - - - - - -
28/03:00pm 23.3 SSE 15 21 1014.8 - 0.0 Fine Mostly clear 40 - - - -
28/02:30pm 23.1 SSE 15 22 1014.6 - 0.0 - - - - - - -
28/02:03pm 21.9 SSE 15 26 1014.4 - 0.0 - - - - - - -
28/02:00pm 22.5 SSE 15 23 1014.4 - 0.0 - - - - - - -
28/01:30pm 21.8 S 15 26 1014.1 - 0.0 - - - - - - -
28/01:00pm 23.3 SSE 14 23 1014.2 - 0.0 - - - - - - -
28/12:30pm 23.0 S 14 22 1014.0 - 0.0 - - - - - - -
28/12:00pm 23.9 S 14 21 1013.7 - 0.0 - - - - - - -
28/11:30am 22.2 S 13 20 1013.5 - 0.0 - - - - - - -
28/11:00am 21.2 S 12 19 1013.5 - 0.0 - - - - - - -
28/10:30am 21.3 S 13 20 1013.3 - 0.0 - - - - - - -
28/10:00am 22.3 S 13 21 1012.8 - 0.0 - - - - - - -
28/09:30am 21.6 S 13 19 1012.4 - 0.0 - - - - - - -
28/09:00am 21.6 S 12 19 1011.9 - 0.0 Drizzle Cloudy 25 - - - -
28/08:30am 21.5 S 12 20 1011.6 - 0.0 - - - - - - -
28/08:00am 22.1 S 12 19 1011.2 - 0.0 - - - - - - -
28/07:30am 22.2 SSW 10 17 1010.5 - 0.0 - - - - - - -
28/07:00am 22.5 S 10 15 1010.1 - 0.0 - - - - - - -
28/06:30am 21.7 SSW 9 15 1009.7 - 0.0 - - - - - - -
28/06:00am 21.5 SSW 10 16 1009.2 - 0.0 - - - - - - -
28/05:30am 21.4 SSW 9 15 1008.7 - 0.0 - - - - - - -
28/05:00am 21.0 SW 8 10 1008.2 - 0.0 - - - - - - -
28/04:30am 21.2 SW 7 9 1008.0 - 0.0 - - - - - - -
28/04:00am 21.2 WSW 7 10 1007.6 - 0.0 - - - - - - -
28/03:30am 21.2 SW 6 9 1006.9 - 0.0 - - - - - - -
28/03:00am 21.5 WSW 5 8 1006.6 - 0.0 - - - - - - -
28/02:30am 21.5 SW 6 8 1006.2 - 0.0 - - - - - - -
28/02:00am 21.6 SW 4 6 1006.0 - 0.0 - - - - - - -
28/01:30am 21.7 SW 5 6 1005.6 - 0.0 - - - - - - -
28/01:00am 21.8 SW 5 5 1005.5 - 0.0 - - - - - - -
28/12:30am 22.8 W 4 5 1005.6 - 0.0 - - - - - - -
28/12:00am 23.3 WNW 5 6 1005.8 - 0.0 - - - - - - -
 
Date/Time
WST
Temp

°C
Wind Pressure Rain
since 9am
mm
Weather Cloud Vis
km
Sea
Height
m
Swell
Dir
 
Speed
knots
Gust
knots
hPa Trend Height
m
Period
s
Dir
27/11:30pm 23.6 WNW 9 13 1006.3 - 0.0 - - - - - - -
27/11:00pm 23.0 N 6 7 1005.2 - 0.0 - - - - - - -
27/10:30pm 22.5 W 4 6 1005.5 - 0.0 - - - - - - -
27/10:00pm 22.9 N 1 5 1006.1 - 0.0 - - - - - - -
27/09:30pm 23.0 CALM 0 0 1005.8 - 0.0 - - - - - - -
27/09:00pm 23.4 E 4 5 1005.5 - 0.0 - - - - - - -
27/08:30pm 23.6 ENE 5 6 1005.1 - 0.0 - - - - - - -
27/08:00pm 24.0 ESE 6 9 1004.9 - 0.0 - - - - - - -
27/07:30pm 23.7 ESE 7 9 1005.0 - 0.0 - - - - - - -
27/07:00pm 23.4 ESE 6 8 1004.1 - 0.0 - - - - - - -
27/06:30pm 22.7 ESE 7 10 1003.8 - 0.0 - - - - - - -
27/06:00pm 22.7 SE 6 8 1003.3 - 0.0 - - - - - - -
27/05:30pm 23.8 SE 7 11 1003.0 - 0.0 - - - - - - -
27/05:00pm 24.5 SE 7 13 1002.7 - 0.0 - - - - - - -
27/04:30pm 25.6 SE 8 11 1002.7 - 0.0 - - - - - - -
27/04:00pm 26.5 SE 8 12 1002.7 - 0.0 - - - - - - -
27/03:30pm 27.6 SE 9 13 1002.7 - 0.0 - - - - - - -
27/03:00pm 27.9 SE 9 13 1002.5 - 0.0 Fine Mostly clear 40 - - - -
27/02:30pm 28.4 SE 9 13 1002.4 - 0.0 - - - - - - -
27/02:00pm 28.1 SE 7 9 1002.4 - 0.0 - - - - - - -
27/01:30pm 27.0 SSE 9 13 1002.5 - 0.0 - - - - - - -
27/01:22pm 28.8 SSE 9 12 1002.5 - 0.0 - - - - - - -
27/01:00pm 34.3 WNW 11 24 1002.4 - 0.0 - - - - - - -
27/12:30pm 35.6 NW 12 19 1002.8 - 0.0 - - - - - - -
27/12:00pm 35.4 NW 12 21 1002.9 - 0.0 - - - - - - -
27/11:30am 35.0 NW 11 19 1003.3 - 0.0 - - - - - - -
27/11:00am 34.2 NW 12 18 1003.7 - 0.0 - - - - - - -
27/10:30am 35.4 NNW 12 20 1004.3 - 0.0 - - - - - - -
27/10:00am 33.9 NNW 11 17 1004.8 - 0.0 - - - - - - -
27/09:30am 31.5 N 10 16 1005.1 - 0.0 - - - - - - -
27/09:00am 29.5 N 9 15 1005.3 - 0.8 Fine Partly cloudy 40 - - - -
27/08:30am 26.9 N 7 10 1005.5 - 0.8 - - - - - - -
27/08:00am 24.9 N 6 9 1005.6 - 0.8 - - - - - - -
27/07:30am 23.7 NNE 6 8 1005.6 - 0.8 - - - - - - -
27/07:00am 22.8 NNE 7 9 1005.8 - 0.8 - - - - - - -
27/06:30am 21.1 NE 5 6 1006.0 - 0.8 - - - - - - -
27/06:00am 20.3 ENE 3 4 1006.6 - 0.8 - - - - - - -
27/05:30am 19.7 CALM 0 0 1006.8 - 0.8 - - - - - - -
27/05:00am 19.6 ESE 4 6 1006.7 - 0.8 - - - - - - -
27/04:30am 19.8 SSW 2 5 1007.8 - 0.8 - - - - - - -
27/04:00am 19.8 SSW 4 5 1008.1 - 0.8 - - - - - - -
27/03:30am 20.2 WNW 8 14 1008.0 - 0.6 - - - - - - -
27/03:00am 20.2 SW 8 11 1007.4 - 0.6 Recent precip. - - - - - -
27/02:30am 20.4 SW 6 8 1007.1 - 0.4 - - - - - - -
27/02:00am 20.2 WSW 4 7 1006.9 - 0.2 - - - - - - -
27/01:30am 25.0 NNW 8 14 1006.7 - 0.0 - - - - - - -
27/01:00am 25.3 NE 6 8 1005.8 - 0.0 - - - - - - -
27/12:30am 25.2 ENE 8 11 1004.9 - 0.0 - - - - - - -
27/12:00am 25.3 NE 9 13 1005.2 - 0.0 - - - - - - -
 
Date/Time
WST
Temp

°C
Wind Pressure Rain
since 9am
mm
Weather Cloud Vis
km
Sea
Height
m
Swell
Dir
 
Speed
knots
Gust
knots
hPa Trend Height
m
Period
s
Dir
26/11:30pm 25.3 ENE 9 15 1005.2 - 0.0 - - - - - - -
26/11:00pm 25.3 ENE 9 13 1005.6 - 0.0 - - - - - - -
26/10:30pm 25.3 NE 9 14 1005.8 - 0.0 - - - - - - -
26/10:00pm 25.8 NE 8 12 1006.5 - 0.0 - - - - - - -
26/09:30pm 26.3 ENE 9 14 1006.4 - 0.0 - - - - - - -
26/09:00pm 26.4 NE 9 14 1006.8 - 0.0 - - - - - - -
26/08:30pm 26.3 ENE 8 12 1006.7 - 0.0 - - - - - - -
26/08:00pm 26.4 ENE 8 13 1006.6 - 0.0 - - - - - - -
26/07:30pm 26.9 ENE 8 10 1006.5 - 0.0 - - - - - - -
26/07:00pm 27.2 ENE 9 14 1006.7 - 0.0 - - - - - - -
26/06:30pm 27.2 ENE 9 15 1006.4 - 0.0 - - - - - - -
26/06:00pm 27.8 E 9 13 1006.3 - 0.0 - - - - - - -
26/05:30pm 28.6 ENE 9 14 1006.6 - 0.0 - - - - - - -
26/05:00pm 29.0 E 9 14 1006.6 - 0.0 - - - - - - -
26/04:30pm 29.2 E 8 13 1006.7 - 0.0 - - - - - - -
26/04:00pm 29.2 ESE 9 14 1006.8 - 0.0 - - - - - - -
26/03:30pm 30.9 ESE 8 13 1006.8 - 0.0 - - - - - - -
26/03:00pm 32.6 ESE 8 11 1006.9 - 0.0 Fine Mostly cloudy 40 - - - -
26/02:30pm 31.7 ESE 8 11 1007.3 - 0.0 - - - - - - -
26/02:00pm 31.1 SE 9 14 1007.7 - 0.0 - - - - - - -
26/01:30pm 31.2 SE 6 8 1008.1 - 0.0 - - - - - - -
26/01:00pm 31.3 ESE 7 11 1008.4 - 0.0 - - - - - - -
26/12:30pm 29.6 SE 8 12 1008.7 - 0.0 - - - - - - -
26/12:00pm 29.6 SSE 6 10 1009.2 - 0.0 - - - - - - -
26/11:30am 32.2 NW 9 15 1009.5 - 0.0 - - - - - - -
26/11:00am 34.9 NNW 9 15 1010.1 - 0.0 - - - - - - -
26/10:58am 35.0 NNW 9 15 1010.2 - 0.0 - - - - - - -
26/10:30am 29.9 SSE 3 6 1010.6 - 0.0 - - - - - - -
26/10:00am 26.9 ESE 5 6 1010.9 - 0.0 - - - - - - -
26/09:30am 26.3 SSE 5 6 1011.5 - 0.0 - - - - - - -
26/09:00am 26.4 SSE 5 7 1011.7 - 0.0 Fine Mostly cloudy 40 - - - -
26/08:30am 29.3 NNE 4 6 1011.5 - 0.0 - - - - - - -
26/08:00am 28.6 NNE 5 9 1011.4 - 0.0 - - - - - - -
26/07:30am 27.7 NNE 10 16 1010.7 - 0.0 - - - - - - -
26/07:00am 26.1 N 12 17 1010.6 - 0.0 - - - - - - -
26/06:30am 24.8 N 10 15 1010.5 - 0.0 - - - - - - -
26/06:00am 23.8 N 11 14 1010.3 - 0.0 - - - - - - -
26/05:30am 23.4 N 9 12 1009.9 - 0.0 - - - - - - -
26/05:00am 23.2 NNE 9 13 1009.5 - 0.0 - - - - - - -
26/04:30am 23.5 NNE 10 14 1009.3 - 0.0 - - - - - - -
26/04:00am 23.5 NNE 10 14 1009.2 - 0.0 - - - - - - -
26/03:30am 23.1 NNE 11 15 1009.3 - 0.0 - - - - - - -
26/03:00am 23.5 NE 10 15 1009.2 - 0.0 - - - - - - -
26/02:30am 23.0 NE 8 10 1009.4 - 0.0 - - - - - - -
26/02:00am 22.3 NE 7 10 1009.7 - 0.0 - - - - - - -
26/01:30am 21.8 ENE 6 8 1010.1 - 0.0 - - - - - - -
26/01:00am 22.9 E 6 9 1010.4 - 0.0 - - - - - - -
26/12:30am 22.6 N 7 10 1010.7 - 0.0 - - - - - - -

Other Formats:

Comma delimited format used in spreadsheet applications
http://www.bom.gov.au/fwo/IDW60701/IDW60701.94647.axf

JavaScript Object Notation format (JSON) in row-major order
http://www.bom.gov.au/fwo/IDW60701/IDW60701.94647.json